Hovedside
METAR-TAF:

METAR-TAF

Lufthavner :

Fuerteventura lufthavn

Fuerteventura, Spania

breddegrad: 28-27N, lengdegrad: 013-52W, høyde over havet: 22 m

Gjeldene værobservasjon

Denne rapporten ble laget for 19 minutter siden, klokken 05:00 UTC
Vind 11 kt fra Nordvest
Temperatur 20°C
Luftfuktighet 73%
Trykk 1014 hPa
Sikt 10 km eller mer
Få skyer i en høyde av 2000 ft

METAR: GCFV 190500Z 32011KT 9999 FEW020 20/15 Q1014

Tid: 06:19 (05:19 UTC)

Varsel

Denne rapporten ble laget for 3 timer og 19 minutter siden, klokken 02:00 UTC
Varsel gyldig fra 19. klokken 03 UTC til 20. klokken 03 UTC
Vind 9 kt fra Nord
Sikt 10 km eller mer
Få skyer i en høyde av 2500 ft
Blir
fra 19. klokken 09 UTC til 19. klokken 11 UTC
Vind 14 kt fra Nordøst

TAF: GCFV 190200Z 1903/2003 35009KT 9999 FEW025 TX26/1914Z TN19/1906Z BECMG 1909/1911 05014KT

Værobservasjoner og værvarsel for over 4000 flyplasser (METAR- og TAF-rapporter).

Tilgjengelige stasjoner er representert av de røde og gule prikkene på kartet.

Hold musepekeren over prikken for å se navnet på stasjonen.

Klikk så for å se værobservasjoner og -varsler.

For å forandre kartet kan du klikke på den grønne knappen med svart kryss for å zoome inn, på den grønne knappen med strek for å zoome ut, eller på de grønne pilene for å se tilstøtende kart.


METAR-TAF: